createdAt,value
2022-08-17T00:02:07.609Z,6.17
2022-08-17T00:04:50.847Z,5.70
2022-08-17T00:07:17.192Z,6.27
2022-08-17T00:09:43.677Z,6.00
2022-08-17T00:12:43.514Z,6.27
2022-08-17T00:14:56.388Z,5.80
2022-08-17T00:17:22.779Z,5.93
2022-08-17T00:19:49.103Z,6.00
2022-08-17T00:22:34.789Z,6.10
2022-08-17T00:25:07.038Z,7.00
2022-08-17T00:27:33.757Z,6.07
2022-08-17T00:30:00.255Z,6.17
2022-08-17T00:33:14.905Z,6.40
2022-08-17T00:35:16.046Z,5.87
2022-08-17T00:37:42.483Z,6.50
2022-08-17T00:40:11.704Z,6.10
2022-08-17T00:42:38.943Z,5.50
2022-08-17T00:45:07.534Z,5.57
2022-08-17T00:47:34.310Z,6.00
2022-08-17T00:50:00.886Z,5.73
2022-08-17T00:52:35.635Z,5.87
2022-08-17T00:55:03.027Z,6.30
2022-08-17T00:57:32.870Z,6.03
2022-08-17T01:00:18.659Z,6.50
2022-08-17T01:02:47.700Z,6.00
2022-08-17T01:05:23.633Z,5.97
2022-08-17T01:07:52.342Z,7.17
2022-08-17T01:10:59.577Z,6.93
2022-08-17T01:13:12.934Z,6.03
2022-08-17T01:15:46.133Z,6.20
2022-08-17T01:18:13.552Z,6.90
2022-08-17T01:20:48.504Z,6.37
2022-08-17T01:23:18.567Z,6.40
2022-08-17T01:25:50.920Z,6.30
2022-08-17T01:28:33.546Z,6.47
2022-08-17T01:31:06.859Z,6.63
2022-08-17T01:33:33.382Z,6.53
2022-08-17T01:36:00.617Z,6.93
2022-08-17T01:38:31.519Z,7.10
2022-08-17T01:41:06.254Z,5.90
2022-08-17T01:43:43.375Z,6.80
2022-08-17T01:46:16.919Z,6.50
2022-08-17T01:48:47.166Z,6.37
2022-08-17T01:51:15.486Z,7.70
2022-08-17T01:53:47.212Z,6.97
2022-08-17T01:56:17.056Z,7.03
2022-08-17T01:58:43.726Z,7.10
2022-08-17T02:01:14.564Z,7.20
2022-08-17T02:03:41.983Z,6.83
2022-08-17T02:06:27.510Z,7.47
2022-08-17T02:09:01.598Z,7.47
2022-08-17T02:11:28.653Z,7.50
2022-08-17T02:14:33.385Z,7.37
2022-08-17T02:16:59.809Z,7.17
2022-08-17T02:19:26.218Z,7.30
2022-08-17T02:21:54.237Z,7.60
2022-08-17T02:25:01.150Z,7.53
2022-08-17T02:27:17.883Z,7.63
2022-08-17T02:29:44.291Z,7.53
2022-08-17T02:32:28.114Z,8.27
2022-08-17T02:34:56.428Z,7.53
2022-08-17T02:37:22.775Z,8.10
2022-08-17T02:39:49.165Z,8.00
2022-08-17T02:42:15.633Z,7.40
2022-08-17T02:44:42.067Z,7.77
2022-08-17T02:47:09.937Z,7.63
2022-08-17T02:49:37.240Z,7.10
2022-08-17T02:52:07.937Z,6.90
2022-08-17T02:54:41.727Z,7.47
2022-08-17T02:57:09.948Z,6.73
2022-08-17T02:59:36.959Z,6.20
2022-08-17T03:02:04.615Z,7.00
2022-08-17T03:04:31.611Z,7.67
2022-08-17T03:07:01.700Z,7.00
2022-08-17T03:09:28.019Z,6.83
2022-08-17T03:11:55.893Z,6.40
2022-08-17T03:14:25.969Z,7.00
2022-08-17T03:16:52.803Z,7.50
2022-08-17T03:19:19.169Z,6.97
2022-08-17T03:21:45.501Z,6.33
2022-08-17T03:24:11.853Z,7.43
2022-08-17T03:26:38.211Z,6.90
2022-08-17T03:29:04.547Z,7.00
2022-08-17T03:31:31.393Z,7.20
2022-08-17T03:33:57.985Z,6.70
2022-08-17T03:36:25.244Z,7.00
2022-08-17T03:38:51.616Z,7.03
2022-08-17T03:41:17.991Z,6.50
2022-08-17T03:43:44.303Z,6.20
2022-08-17T03:46:35.188Z,6.77
2022-08-17T03:49:25.136Z,6.60
2022-08-17T03:52:11.093Z,7.50
2022-08-17T03:54:56.116Z,6.60
2022-08-17T03:57:22.594Z,6.90
2022-08-17T03:59:49.425Z,6.90
2022-08-17T04:02:18.286Z,7.50
2022-08-17T04:04:44.635Z,6.80
2022-08-17T04:07:11.001Z,7.40
2022-08-17T04:09:37.378Z,7.17
2022-08-17T04:12:05.232Z,7.30
2022-08-17T04:14:36.283Z,7.23
2022-08-17T04:17:19.502Z,8.00
2022-08-17T04:19:46.574Z,6.90
2022-08-17T04:22:32.508Z,7.60
2022-08-17T04:25:00.131Z,7.93
2022-08-17T04:27:27.037Z,7.10
2022-08-17T04:29:55.272Z,7.63
2022-08-17T04:33:04.503Z,6.90
2022-08-17T04:35:09.496Z,7.93
2022-08-17T04:37:35.808Z,7.60
2022-08-17T04:40:22.756Z,7.80
2022-08-17T04:43:07.638Z,7.43
2022-08-17T04:45:34.487Z,7.40
2022-08-17T04:48:01.063Z,7.63
2022-08-17T04:50:27.733Z,8.10
2022-08-17T04:52:54.207Z,7.97
2022-08-17T04:55:20.980Z,7.00
2022-08-17T04:57:50.492Z,7.87
2022-08-17T05:00:16.927Z,8.17
2022-08-17T05:02:50.980Z,7.30
2022-08-17T05:05:19.715Z,6.50
2022-08-17T05:07:47.807Z,7.30
2022-08-17T05:10:14.164Z,7.50
2022-08-17T05:12:40.529Z,6.80
2022-08-17T05:15:11.776Z,7.50
2022-08-17T05:17:38.120Z,7.30
2022-08-17T05:20:05.153Z,7.10
2022-08-17T05:22:31.509Z,7.30
2022-08-17T05:24:57.837Z,6.87
2022-08-17T05:27:24.261Z,7.50
2022-08-17T05:29:54.239Z,6.40
2022-08-17T05:32:38.185Z,7.50
2022-08-17T05:35:07.418Z,7.00
2022-08-17T05:37:33.812Z,6.97
2022-08-17T05:40:00.276Z,6.80
2022-08-17T05:42:26.737Z,7.20
2022-08-17T05:44:56.455Z,6.40
2022-08-17T05:47:24.807Z,6.70
2022-08-17T05:49:51.142Z,7.97
2022-08-17T05:52:54.814Z,6.87
2022-08-17T05:55:32.081Z,6.27
2022-08-17T05:58:36.055Z,6.50
2022-08-17T06:01:18.175Z,7.47
2022-08-17T06:04:15.601Z,7.50
2022-08-17T06:06:49.703Z,7.10
2022-08-17T06:09:30.156Z,6.63
2022-08-17T06:12:14.450Z,7.60
2022-08-17T06:15:09.429Z,6.50
2022-08-17T06:17:37.354Z,6.60
2022-08-17T06:20:13.011Z,6.13
2022-08-17T06:22:45.877Z,6.47
2022-08-17T06:25:36.412Z,8.30
2022-08-17T06:28:07.615Z,7.40
2022-08-17T06:31:00.303Z,8.00
2022-08-17T06:33:34.122Z,6.70
2022-08-17T06:36:15.885Z,7.23
2022-08-17T06:39:10.408Z,7.33
2022-08-17T06:41:56.508Z,6.63
2022-08-17T06:44:42.143Z,7.10
2022-08-17T06:47:29.268Z,7.00
2022-08-17T06:50:07.849Z,6.80
2022-08-17T06:52:46.790Z,7.43
2022-08-17T06:55:26.193Z,6.90
2022-08-17T06:57:59.659Z,7.00
2022-08-17T07:00:35.529Z,6.63
2022-08-17T07:03:08.381Z,6.63
2022-08-17T07:05:49.456Z,8.50
2022-08-17T07:08:35.128Z,6.50
2022-08-17T07:11:06.531Z,7.27
2022-08-17T07:13:51.785Z,7.13
2022-08-17T07:16:30.891Z,6.60
2022-08-17T07:18:58.833Z,6.90
2022-08-17T07:21:39.017Z,6.57
2022-08-17T07:24:30.399Z,6.30
2022-08-17T07:27:27.413Z,5.80
2022-08-17T07:30:10.932Z,6.17
2022-08-17T07:32:58.367Z,6.07
2022-08-17T07:35:41.246Z,6.50
2022-08-17T07:38:28.244Z,6.97
2022-08-17T07:40:57.912Z,6.70
2022-08-17T07:43:50.826Z,6.50
2022-08-17T07:46:41.925Z,5.53
2022-08-17T07:49:12.430Z,5.70
2022-08-17T07:51:45.528Z,5.80
2022-08-17T07:54:15.151Z,5.83
2022-08-17T07:56:52.493Z,5.90
2022-08-17T07:59:43.286Z,6.50
2022-08-17T08:02:38.153Z,6.60
2022-08-17T08:05:12.844Z,6.17
2022-08-17T08:07:49.525Z,5.80
2022-08-17T08:10:42.771Z,6.67
2022-08-17T08:13:28.684Z,6.10
2022-08-17T08:16:16.518Z,6.20
2022-08-17T08:18:55.429Z,6.07
2022-08-17T08:22:11.282Z,6.00
2022-08-17T08:24:51.329Z,5.90
2022-08-17T08:27:43.601Z,6.27
2022-08-17T08:30:16.724Z,7.17
2022-08-17T08:32:57.235Z,6.30
2022-08-17T08:35:53.514Z,7.07
2022-08-17T08:38:33.471Z,7.03
2022-08-17T08:41:26.311Z,6.30
2022-08-17T08:44:13.495Z,6.47
2022-08-17T08:46:57.621Z,6.00
2022-08-17T08:50:03.374Z,6.60
2022-08-17T08:52:55.313Z,6.37
2022-08-17T08:55:38.115Z,6.80
2022-08-17T08:58:32.303Z,5.63
2022-08-17T09:01:16.973Z,6.07
2022-08-17T09:03:53.788Z,6.03
2022-08-17T09:06:39.000Z,5.40
2022-08-17T09:09:31.412Z,6.30
2022-08-17T09:12:13.665Z,6.73
2022-08-17T09:14:48.933Z,5.80
2022-08-17T09:17:21.146Z,5.40
2022-08-17T09:20:01.022Z,5.63
2022-08-17T09:22:37.029Z,5.57
2022-08-17T09:25:10.458Z,5.90
2022-08-17T09:28:06.446Z,5.77
2022-08-17T09:30:41.252Z,5.70
2022-08-17T09:33:11.486Z,5.40
2022-08-17T09:36:02.782Z,6.37
2022-08-17T09:38:53.718Z,4.70
2022-08-17T09:41:49.486Z,4.70
2022-08-17T09:45:00.848Z,5.17
2022-08-17T09:47:53.662Z,5.00
2022-08-17T09:51:04.094Z,4.90
2022-08-17T09:53:15.099Z,4.90
2022-08-17T09:56:05.276Z,5.00
2022-08-17T09:59:03.228Z,5.40
2022-08-17T10:01:37.924Z,5.23
2022-08-17T10:04:29.531Z,5.60
2022-08-17T10:07:15.157Z,4.60
2022-08-17T10:09:53.192Z,4.53
2022-08-17T10:12:48.472Z,5.10
2022-08-17T10:15:25.648Z,4.90
2022-08-17T10:18:37.701Z,5.10
2022-08-17T10:21:36.771Z,4.40
2022-08-17T10:24:40.675Z,4.63
2022-08-17T10:27:44.893Z,5.50
2022-08-17T10:30:15.567Z,5.63
2022-08-17T10:33:20.315Z,4.90
2022-08-17T10:36:29.843Z,4.80
2022-08-17T10:39:19.725Z,4.80
2022-08-17T10:41:52.523Z,4.63
2022-08-17T10:44:50.367Z,4.73
2022-08-17T10:47:18.719Z,4.87
2022-08-17T10:49:49.469Z,4.30
2022-08-17T10:52:27.692Z,4.70
2022-08-17T10:54:58.390Z,4.13
2022-08-17T10:57:38.813Z,4.87
2022-08-17T11:00:40.136Z,6.03
2022-08-17T11:03:21.087Z,4.67
2022-08-17T11:05:59.737Z,5.90
2022-08-17T11:08:40.722Z,6.03
2022-08-17T11:11:25.555Z,5.10
2022-08-17T11:14:11.173Z,5.10
2022-08-17T11:16:57.392Z,4.40
2022-08-17T11:19:47.735Z,4.97
2022-08-17T11:22:33.907Z,4.87
2022-08-17T11:25:21.260Z,4.40
2022-08-17T11:27:53.475Z,4.47
2022-08-17T11:30:41.600Z,4.27
2022-08-17T11:33:29.022Z,4.57
2022-08-17T11:36:03.954Z,4.60
2022-08-17T11:38:46.109Z,4.27
2022-08-17T11:41:30.365Z,4.70
2022-08-17T11:43:56.699Z,4.60
2022-08-17T11:47:28.398Z,4.97
2022-08-17T11:50:46.957Z,4.50
2022-08-17T11:54:14.605Z,4.57
2022-08-17T11:56:50.130Z,4.20
2022-08-17T11:59:32.608Z,4.80
2022-08-17T12:02:01.401Z,4.57
2022-08-17T12:04:33.739Z,4.90
2022-08-17T12:07:21.095Z,4.53
2022-08-17T12:09:50.767Z,4.70
2022-08-17T12:12:22.692Z,4.43
2022-08-17T12:15:11.075Z,4.40
2022-08-17T12:17:41.585Z,4.93
2022-08-17T12:20:33.903Z,4.80
2022-08-17T12:23:14.456Z,5.07
2022-08-17T12:25:55.192Z,5.83
2022-08-17T12:29:43.960Z,5.30
2022-08-17T12:32:17.588Z,4.93
2022-08-17T12:34:46.428Z,4.50
2022-08-17T12:37:27.366Z,4.70
2022-08-17T12:39:58.589Z,4.90
2022-08-17T12:42:32.065Z,5.30
2022-08-17T12:44:58.759Z,4.97
2022-08-17T12:47:25.177Z,4.90
2022-08-17T12:50:08.211Z,4.57
2022-08-17T12:52:59.676Z,4.70
2022-08-17T12:55:33.758Z,4.60
2022-08-17T12:58:01.840Z,4.50
2022-08-17T13:00:28.654Z,4.80
2022-08-17T13:02:54.948Z,4.93
2022-08-17T13:05:34.893Z,5.10
2022-08-17T13:08:04.380Z,4.90
2022-08-17T13:10:35.810Z,4.87
2022-08-17T13:13:21.252Z,5.10
2022-08-17T13:16:06.560Z,5.00
2022-08-17T13:18:52.429Z,4.97
2022-08-17T13:21:18.799Z,4.93
2022-08-17T13:24:06.892Z,5.20
2022-08-17T13:26:45.489Z,4.63
2022-08-17T13:29:39.015Z,4.80
2022-08-17T13:32:13.462Z,4.97
2022-08-17T13:35:12.325Z,5.80
2022-08-17T13:37:35.793Z,4.57
2022-08-17T13:40:08.122Z,6.00
2022-08-17T13:42:48.081Z,5.20
2022-08-17T13:45:36.203Z,4.70
2022-08-17T13:48:14.137Z,5.40
2022-08-17T13:51:06.521Z,4.97
2022-08-17T13:53:54.840Z,5.17
2022-08-17T13:56:37.950Z,5.20
2022-08-17T13:59:53.275Z,5.60
2022-08-17T14:02:13.407Z,5.07
2022-08-17T14:04:41.955Z,5.80
2022-08-17T14:07:15.820Z,4.93
2022-08-17T14:09:51.699Z,5.50
2022-08-17T14:12:27.007Z,4.90
2022-08-17T14:14:56.223Z,4.80
2022-08-17T14:17:24.441Z,5.80
2022-08-17T14:19:51.208Z,5.30
2022-08-17T14:22:32.790Z,4.80
2022-08-17T14:25:01.449Z,4.80
2022-08-17T14:27:31.680Z,4.90
2022-08-17T14:29:58.339Z,5.73
2022-08-17T14:32:36.174Z,4.93
2022-08-17T14:35:05.009Z,5.10
2022-08-17T14:37:32.162Z,4.87
2022-08-17T14:40:02.302Z,5.00
2022-08-17T14:42:32.864Z,4.60
2022-08-17T14:44:59.789Z,5.20
2022-08-17T14:47:29.041Z,4.67
2022-08-17T14:49:55.393Z,5.10
2022-08-17T14:52:22.141Z,5.37
2022-08-17T14:54:51.155Z,4.70
2022-08-17T14:57:25.132Z,5.67
2022-08-17T15:00:01.038Z,5.33
2022-08-17T15:02:30.158Z,4.17
2022-08-17T15:05:03.599Z,5.30
2022-08-17T15:07:30.478Z,5.40
2022-08-17T15:09:58.519Z,4.90
2022-08-17T15:12:32.058Z,5.00
2022-08-17T15:15:00.494Z,4.57
2022-08-17T15:17:27.021Z,4.50
2022-08-17T15:20:18.768Z,4.80
2022-08-17T15:22:49.470Z,5.07
2022-08-17T15:25:16.856Z,4.60
2022-08-17T15:27:43.880Z,4.73
2022-08-17T15:30:10.910Z,5.00
2022-08-17T15:32:40.440Z,4.90
2022-08-17T15:35:11.637Z,5.20
2022-08-17T15:37:40.083Z,4.83
2022-08-17T15:40:08.516Z,4.73
2022-08-17T15:42:35.407Z,4.80
2022-08-17T15:45:09.290Z,4.70
2022-08-17T15:47:36.807Z,5.30
2022-08-17T15:50:08.636Z,5.10
2022-08-17T15:52:40.352Z,5.13
2022-08-17T15:55:10.135Z,4.90
2022-08-17T15:57:36.699Z,4.50
2022-08-17T16:00:05.421Z,4.70
2022-08-17T16:03:13.848Z,4.57
2022-08-17T16:05:24.836Z,5.00
2022-08-17T16:07:52.481Z,5.03
2022-08-17T16:10:19.626Z,4.97
2022-08-17T16:12:47.570Z,6.37
2022-08-17T16:15:14.565Z,5.40
2022-08-17T16:17:41.441Z,5.80
2022-08-17T16:20:10.379Z,5.13
2022-08-17T16:22:49.144Z,4.90
2022-08-17T16:25:21.424Z,5.13
2022-08-17T16:27:53.275Z,5.77
2022-08-17T16:30:22.880Z,5.50
2022-08-17T16:32:51.618Z,5.50
2022-08-17T16:35:21.117Z,5.43
2022-08-17T16:37:48.389Z,5.23
2022-08-17T16:40:16.559Z,5.03
2022-08-17T16:42:43.253Z,5.70
2022-08-17T16:45:12.903Z,5.43
2022-08-17T16:47:40.126Z,6.20
2022-08-17T16:50:07.994Z,5.83
2022-08-17T16:52:34.839Z,6.50
2022-08-17T16:55:02.739Z,6.07
2022-08-17T16:57:29.917Z,6.27
2022-08-17T16:59:56.571Z,5.80
2022-08-17T17:02:33.685Z,5.70
2022-08-17T17:05:19.133Z,5.70
2022-08-17T17:08:09.543Z,5.37
2022-08-17T17:10:42.559Z,4.67
2022-08-17T17:13:40.434Z,5.77
2022-08-17T17:16:21.494Z,5.57
2022-08-17T17:19:04.705Z,4.50
2022-08-17T17:21:38.949Z,4.73
2022-08-17T17:24:13.860Z,4.80
2022-08-17T17:27:00.346Z,4.60
2022-08-17T17:29:47.907Z,4.97
2022-08-17T17:32:35.740Z,5.27
2022-08-17T17:35:16.972Z,4.17
2022-08-17T17:37:46.369Z,4.00
2022-08-17T17:40:41.698Z,3.90
2022-08-17T17:43:36.930Z,4.40
2022-08-17T17:46:28.591Z,4.53
2022-08-17T17:48:57.495Z,3.97
2022-08-17T17:52:08.551Z,4.23
2022-08-17T17:54:46.287Z,4.17
2022-08-17T17:57:31.606Z,5.00
2022-08-17T18:00:25.458Z,4.50
2022-08-17T18:02:58.626Z,3.83
2022-08-17T18:05:34.253Z,4.00
2022-08-17T18:08:10.768Z,4.10
2022-08-17T18:11:00.432Z,3.90
2022-08-17T18:14:00.390Z,4.50
2022-08-17T18:16:29.543Z,4.50
2022-08-17T18:18:59.681Z,4.57
2022-08-17T18:21:35.335Z,4.20
2022-08-17T18:24:04.406Z,3.90
2022-08-17T18:26:36.435Z,5.10
2022-08-17T18:29:24.749Z,4.40
2022-08-17T18:32:23.059Z,5.27
2022-08-17T18:34:53.574Z,5.67
2022-08-17T18:37:31.877Z,5.20
2022-08-17T18:39:58.301Z,5.13
2022-08-17T18:42:27.158Z,4.43
2022-08-17T18:44:55.508Z,4.63
2022-08-17T18:47:25.733Z,4.40
2022-08-17T18:49:57.705Z,4.57
2022-08-17T18:52:28.641Z,5.37
2022-08-17T18:55:22.891Z,5.80
2022-08-17T18:57:53.156Z,4.63
2022-08-17T19:00:40.346Z,5.40
2022-08-17T19:03:15.957Z,5.10
2022-08-17T19:05:45.669Z,5.47
2022-08-17T19:08:30.428Z,4.60
2022-08-17T19:11:10.037Z,6.00
2022-08-17T19:13:57.799Z,5.10
2022-08-17T19:16:31.898Z,5.53
2022-08-17T19:19:18.904Z,5.83
2022-08-17T19:21:53.695Z,6.00
2022-08-17T19:24:23.302Z,6.10
2022-08-17T19:26:56.814Z,6.23
2022-08-17T19:29:56.710Z,5.20
2022-08-17T19:32:28.142Z,5.33
2022-08-17T19:34:55.947Z,5.70
2022-08-17T19:37:56.803Z,5.67
2022-08-17T19:40:53.575Z,6.13
2022-08-17T19:43:28.986Z,5.80
2022-08-17T19:46:18.188Z,5.50
2022-08-17T19:49:10.567Z,5.37
2022-08-17T19:51:46.802Z,5.90
2022-08-17T19:54:22.450Z,5.97
2022-08-17T19:57:36.888Z,5.90
2022-08-17T20:00:12.320Z,5.70
2022-08-17T20:02:46.880Z,5.73
2022-08-17T20:06:12.107Z,5.40
2022-08-17T20:08:41.309Z,6.60
2022-08-17T20:11:14.982Z,6.37
2022-08-17T20:13:49.690Z,6.80
2022-08-17T20:16:18.054Z,5.37
2022-08-17T20:19:01.292Z,6.03
2022-08-17T20:21:36.960Z,6.20
2022-08-17T20:24:26.659Z,6.30
2022-08-17T20:26:58.439Z,6.50
2022-08-17T20:29:39.655Z,8.23
2022-08-17T20:32:17.510Z,8.27
2022-08-17T20:34:47.108Z,8.70
2022-08-17T20:37:13.397Z,7.90
2022-08-17T20:40:08.022Z,7.73
2022-08-17T20:42:36.390Z,7.83
2022-08-17T20:45:25.880Z,7.43
2022-08-17T20:48:20.082Z,8.33
2022-08-17T20:50:52.529Z,7.60
2022-08-17T20:53:46.825Z,8.03
2022-08-17T20:56:44.280Z,7.77
2022-08-17T20:59:27.382Z,9.10
2022-08-17T21:02:18.304Z,8.70
2022-08-17T21:05:02.163Z,8.20
2022-08-17T21:07:41.117Z,7.63
2022-08-17T21:10:22.256Z,7.70
2022-08-17T21:13:14.038Z,8.33
2022-08-17T21:15:42.054Z,7.60
2022-08-17T21:18:23.399Z,7.80
2022-08-17T21:21:08.790Z,7.50
2022-08-17T21:23:51.156Z,7.67
2022-08-17T21:26:31.043Z,6.90
2022-08-17T21:29:32.593Z,8.00
2022-08-17T21:32:03.287Z,7.20
2022-08-17T21:34:35.664Z,8.23
2022-08-17T21:37:20.781Z,8.10
2022-08-17T21:39:52.656Z,8.70
2022-08-17T21:42:29.412Z,7.80
2022-08-17T21:45:00.378Z,8.70
2022-08-17T21:47:30.391Z,7.97
2022-08-17T21:50:18.613Z,8.33
2022-08-17T21:52:45.809Z,8.40
2022-08-17T21:55:34.059Z,8.00
2022-08-17T21:58:14.917Z,8.40
2022-08-17T22:00:44.226Z,8.90
2022-08-17T22:03:23.624Z,9.03
2022-08-17T22:05:51.152Z,8.23
2022-08-17T22:08:23.891Z,9.53
2022-08-17T22:10:59.338Z,8.03
2022-08-17T22:13:29.660Z,8.40
2022-08-17T22:16:28.803Z,8.90
2022-08-17T22:18:58.726Z,9.07
2022-08-17T22:21:26.080Z,7.13
2022-08-17T22:24:15.520Z,8.13
2022-08-17T22:27:04.539Z,8.47
2022-08-17T22:30:35.760Z,7.40
2022-08-17T22:33:42.417Z,7.20
2022-08-17T22:36:11.978Z,8.13
2022-08-17T22:38:40.695Z,7.80
2022-08-17T22:41:22.047Z,8.17
2022-08-17T22:43:48.884Z,7.90
2022-08-17T22:46:22.165Z,8.77
2022-08-17T22:48:52.388Z,8.37
2022-08-17T22:51:22.576Z,9.13
2022-08-17T22:54:14.986Z,8.60
2022-08-17T22:57:30.452Z,8.10
2022-08-17T22:59:57.541Z,8.00
2022-08-17T23:02:30.558Z,7.70
2022-08-17T23:05:09.967Z,8.27
2022-08-17T23:07:37.049Z,8.20
2022-08-17T23:10:06.367Z,8.10
2022-08-17T23:12:37.943Z,7.50
2022-08-17T23:15:05.512Z,8.10
2022-08-17T23:17:37.396Z,7.80
2022-08-17T23:20:08.155Z,7.53
2022-08-17T23:22:37.379Z,7.20
2022-08-17T23:25:22.243Z,7.20
2022-08-17T23:27:48.709Z,7.10
2022-08-17T23:30:15.406Z,7.30
2022-08-17T23:32:53.267Z,7.20
2022-08-17T23:35:20.885Z,7.10
2022-08-17T23:38:07.672Z,7.17
2022-08-17T23:40:34.438Z,7.30
2022-08-17T23:43:01.049Z,7.30
2022-08-17T23:45:32.532Z,7.70
2022-08-17T23:47:58.877Z,7.53
2022-08-17T23:50:25.243Z,7.97
2022-08-17T23:52:56.405Z,8.13
2022-08-17T23:55:22.755Z,8.07
2022-08-17T23:57:49.527Z,7.30
